sensor_id;sensor_type;location;lat;lon;timestamp;P1;durP1;ratioP1;P2;durP2;ratioP2
10432;SDS011;5263;48.680;9.004;2022-12-15T00:01:03;31.50;;;21.60;;
10432;SDS011;5263;48.680;9.004;2022-12-15T00:03:47;29.70;;;21.70;;
10432;SDS011;5263;48.680;9.004;2022-12-15T00:06:31;34.00;;;21.63;;
10432;SDS011;5263;48.680;9.004;2022-12-15T00:09:15;35.13;;;23.30;;
10432;SDS011;5263;48.680;9.004;2022-12-15T00:12:00;33.63;;;22.87;;
10432;SDS011;5263;48.680;9.004;2022-12-15T00:14:44;31.10;;;22.00;;
10432;SDS011;5263;48.680;9.004;2022-12-15T00:17:28;32.20;;;22.27;;
10432;SDS011;5263;48.680;9.004;2022-12-15T00:20:12;28.43;;;21.67;;
10432;SDS011;5263;48.680;9.004;2022-12-15T00:22:56;36.17;;;24.73;;
10432;SDS011;5263;48.680;9.004;2022-12-15T00:25:41;36.13;;;24.53;;
10432;SDS011;5263;48.680;9.004;2022-12-15T00:28:26;32.17;;;22.33;;
10432;SDS011;5263;48.680;9.004;2022-12-15T00:31:11;32.50;;;22.90;;
10432;SDS011;5263;48.680;9.004;2022-12-15T00:33:55;31.57;;;22.87;;
10432;SDS011;5263;48.680;9.004;2022-12-15T00:36:39;29.60;;;20.67;;
10432;SDS011;5263;48.680;9.004;2022-12-15T00:39:23;30.37;;;21.97;;
10432;SDS011;5263;48.680;9.004;2022-12-15T00:41:48;30.63;;;22.13;;
10432;SDS011;5263;48.680;9.004;2022-12-15T00:44:14;32.70;;;22.90;;
10432;SDS011;5263;48.680;9.004;2022-12-15T00:46:39;34.03;;;23.30;;
10432;SDS011;5263;48.680;9.004;2022-12-15T00:49:24;31.67;;;23.20;;
10432;SDS011;5263;48.680;9.004;2022-12-15T00:52:10;30.53;;;22.10;;
10432;SDS011;5263;48.680;9.004;2022-12-15T00:54:55;33.33;;;22.90;;
10432;SDS011;5263;48.680;9.004;2022-12-15T00:57:39;34.50;;;22.07;;
10432;SDS011;5263;48.680;9.004;2022-12-15T01:00:24;34.53;;;24.13;;
10432;SDS011;5263;48.680;9.004;2022-12-15T01:03:09;33.77;;;23.27;;
10432;SDS011;5263;48.680;9.004;2022-12-15T01:05:58;34.70;;;23.53;;
10432;SDS011;5263;48.680;9.004;2022-12-15T01:08:42;33.57;;;23.93;;
10432;SDS011;5263;48.680;9.004;2022-12-15T01:11:26;33.10;;;23.50;;
10432;SDS011;5263;48.680;9.004;2022-12-15T01:14:11;33.00;;;23.13;;
10432;SDS011;5263;48.680;9.004;2022-12-15T01:16:56;35.00;;;24.17;;
10432;SDS011;5263;48.680;9.004;2022-12-15T01:19:40;38.33;;;25.93;;
10432;SDS011;5263;48.680;9.004;2022-12-15T01:22:24;36.50;;;24.53;;
10432;SDS011;5263;48.680;9.004;2022-12-15T01:24:50;34.33;;;22.10;;
10432;SDS011;5263;48.680;9.004;2022-12-15T01:27:15;37.33;;;24.17;;
10432;SDS011;5263;48.680;9.004;2022-12-15T01:29:41;36.57;;;22.97;;
10432;SDS011;5263;48.680;9.004;2022-12-15T01:32:07;31.10;;;23.50;;
10432;SDS011;5263;48.680;9.004;2022-12-15T01:34:33;35.50;;;25.87;;
10432;SDS011;5263;48.680;9.004;2022-12-15T01:36:58;35.60;;;24.83;;
10432;SDS011;5263;48.680;9.004;2022-12-15T01:39:24;32.77;;;24.10;;
10432;SDS011;5263;48.680;9.004;2022-12-15T01:42:10;33.27;;;23.27;;
10432;SDS011;5263;48.680;9.004;2022-12-15T01:44:37;35.77;;;24.43;;
10432;SDS011;5263;48.680;9.004;2022-12-15T01:47:02;34.30;;;24.37;;
10432;SDS011;5263;48.680;9.004;2022-12-15T01:49:29;33.63;;;25.23;;
10432;SDS011;5263;48.680;9.004;2022-12-15T01:51:58;33.73;;;23.37;;
10432;SDS011;5263;48.680;9.004;2022-12-15T01:54:30;34.73;;;22.70;;
10432;SDS011;5263;48.680;9.004;2022-12-15T01:57:09;34.77;;;24.60;;
10432;SDS011;5263;48.680;9.004;2022-12-15T01:59:40;34.47;;;23.73;;
10432;SDS011;5263;48.680;9.004;2022-12-15T02:02:13;35.73;;;23.80;;
10432;SDS011;5263;48.680;9.004;2022-12-15T02:04:39;35.00;;;23.80;;
10432;SDS011;5263;48.680;9.004;2022-12-15T02:07:05;36.07;;;23.93;;
10432;SDS011;5263;48.680;9.004;2022-12-15T02:09:36;33.33;;;23.67;;
10432;SDS011;5263;48.680;9.004;2022-12-15T02:15:05;34.53;;;23.73;;
10432;SDS011;5263;48.680;9.004;2022-12-15T02:20:40;33.60;;;23.17;;
10432;SDS011;5263;48.680;9.004;2022-12-15T02:32:54;34.80;;;23.03;;
10432;SDS011;5263;48.680;9.004;2022-12-15T02:35:20;31.80;;;22.27;;
10432;SDS011;5263;48.680;9.004;2022-12-15T02:37:51;34.17;;;23.73;;
10432;SDS011;5263;48.680;9.004;2022-12-15T02:40:17;33.60;;;22.33;;
10432;SDS011;5263;48.680;9.004;2022-12-15T02:42:47;32.43;;;21.50;;
10432;SDS011;5263;48.680;9.004;2022-12-15T02:45:17;34.20;;;22.97;;
10432;SDS011;5263;48.680;9.004;2022-12-15T02:53:46;34.93;;;24.33;;
10432;SDS011;5263;48.680;9.004;2022-12-15T02:59:07;33.27;;;23.03;;
10432;SDS011;5263;48.680;9.004;2022-12-15T03:01:45;31.77;;;21.50;;
10432;SDS011;5263;48.680;9.004;2022-12-15T03:04:12;31.07;;;20.93;;
10432;SDS011;5263;48.680;9.004;2022-12-15T03:06:39;30.87;;;21.53;;
10432;SDS011;5263;48.680;9.004;2022-12-15T03:09:05;32.47;;;22.97;;
10432;SDS011;5263;48.680;9.004;2022-12-15T03:11:31;30.97;;;22.93;;
10432;SDS011;5263;48.680;9.004;2022-12-15T03:13:57;32.80;;;24.43;;
10432;SDS011;5263;48.680;9.004;2022-12-15T03:16:22;32.27;;;22.43;;
10432;SDS011;5263;48.680;9.004;2022-12-15T03:18:48;32.27;;;21.87;;
10432;SDS011;5263;48.680;9.004;2022-12-15T03:21:13;34.43;;;23.30;;
10432;SDS011;5263;48.680;9.004;2022-12-15T03:23:39;35.37;;;24.03;;
10432;SDS011;5263;48.680;9.004;2022-12-15T03:26:05;34.77;;;23.83;;
10432;SDS011;5263;48.680;9.004;2022-12-15T03:28:31;32.57;;;22.47;;
10432;SDS011;5263;48.680;9.004;2022-12-15T03:30:58;37.43;;;24.67;;
10432;SDS011;5263;48.680;9.004;2022-12-15T03:33:23;35.07;;;23.20;;
10432;SDS011;5263;48.680;9.004;2022-12-15T03:35:49;36.23;;;24.07;;
10432;SDS011;5263;48.680;9.004;2022-12-15T03:38:15;32.07;;;23.33;;
10432;SDS011;5263;48.680;9.004;2022-12-15T03:40:41;38.03;;;25.07;;
10432;SDS011;5263;48.680;9.004;2022-12-15T03:43:07;35.33;;;23.63;;
10432;SDS011;5263;48.680;9.004;2022-12-15T03:45:32;35.00;;;24.47;;
10432;SDS011;5263;48.680;9.004;2022-12-15T03:47:58;34.30;;;23.27;;
10432;SDS011;5263;48.680;9.004;2022-12-15T03:50:25;36.40;;;24.67;;
10432;SDS011;5263;48.680;9.004;2022-12-15T03:52:54;36.67;;;24.43;;
10432;SDS011;5263;48.680;9.004;2022-12-15T03:55:21;40.87;;;26.73;;
10432;SDS011;5263;48.680;9.004;2022-12-15T03:57:47;40.13;;;24.60;;
10432;SDS011;5263;48.680;9.004;2022-12-15T04:00:13;39.27;;;26.03;;
10432;SDS011;5263;48.680;9.004;2022-12-15T04:02:43;45.23;;;27.70;;
10432;SDS011;5263;48.680;9.004;2022-12-15T04:05:26;43.17;;;26.63;;
10432;SDS011;5263;48.680;9.004;2022-12-15T04:07:53;41.67;;;26.77;;
10432;SDS011;5263;48.680;9.004;2022-12-15T04:10:21;39.27;;;26.67;;
10432;SDS011;5263;48.680;9.004;2022-12-15T04:12:48;36.97;;;26.23;;
10432;SDS011;5263;48.680;9.004;2022-12-15T04:15:13;41.53;;;28.00;;
10432;SDS011;5263;48.680;9.004;2022-12-15T04:17:39;41.00;;;26.50;;
10432;SDS011;5263;48.680;9.004;2022-12-15T04:20:06;41.77;;;26.67;;
10432;SDS011;5263;48.680;9.004;2022-12-15T04:22:38;35.47;;;24.77;;
10432;SDS011;5263;48.680;9.004;2022-12-15T04:25:06;42.63;;;27.63;;
10432;SDS011;5263;48.680;9.004;2022-12-15T04:27:52;40.60;;;28.27;;
10432;SDS011;5263;48.680;9.004;2022-12-15T04:30:36;41.87;;;27.43;;
10432;SDS011;5263;48.680;9.004;2022-12-15T04:33:22;45.33;;;27.47;;
10432;SDS011;5263;48.680;9.004;2022-12-15T04:36:08;41.90;;;25.80;;
10432;SDS011;5263;48.680;9.004;2022-12-15T04:38:54;41.00;;;26.87;;
10432;SDS011;5263;48.680;9.004;2022-12-15T04:41:39;37.97;;;26.03;;
10432;SDS011;5263;48.680;9.004;2022-12-15T04:44:23;34.57;;;23.83;;
10432;SDS011;5263;48.680;9.004;2022-12-15T04:47:08;39.17;;;25.90;;
10432;SDS011;5263;48.680;9.004;2022-12-15T04:49:52;37.77;;;25.10;;
10432;SDS011;5263;48.680;9.004;2022-12-15T04:52:36;40.33;;;26.57;;
10432;SDS011;5263;48.680;9.004;2022-12-15T04:55:20;38.50;;;26.63;;
10432;SDS011;5263;48.680;9.004;2022-12-15T04:58:05;38.87;;;25.60;;
10432;SDS011;5263;48.680;9.004;2022-12-15T05:00:50;37.17;;;25.97;;
10432;SDS011;5263;48.680;9.004;2022-12-15T05:03:35;40.83;;;27.77;;
10432;SDS011;5263;48.680;9.004;2022-12-15T05:06:19;42.17;;;27.73;;
10432;SDS011;5263;48.680;9.004;2022-12-15T05:09:03;40.73;;;26.60;;
10432;SDS011;5263;48.680;9.004;2022-12-15T05:11:48;40.37;;;26.50;;
10432;SDS011;5263;48.680;9.004;2022-12-15T05:14:32;37.80;;;25.70;;
10432;SDS011;5263;48.680;9.004;2022-12-15T05:17:16;35.87;;;25.07;;
10432;SDS011;5263;48.680;9.004;2022-12-15T05:20:00;35.97;;;24.73;;
10432;SDS011;5263;48.680;9.004;2022-12-15T05:22:44;37.40;;;25.03;;
10432;SDS011;5263;48.680;9.004;2022-12-15T05:25:28;34.33;;;23.73;;
10432;SDS011;5263;48.680;9.004;2022-12-15T05:28:12;36.30;;;24.30;;
10432;SDS011;5263;48.680;9.004;2022-12-15T05:30:56;37.23;;;25.80;;
10432;SDS011;5263;48.680;9.004;2022-12-15T05:33:40;38.10;;;24.93;;
10432;SDS011;5263;48.680;9.004;2022-12-15T05:36:06;40.13;;;26.03;;
10432;SDS011;5263;48.680;9.004;2022-12-15T05:38:32;38.47;;;25.73;;
10432;SDS011;5263;48.680;9.004;2022-12-15T05:40:58;42.13;;;28.00;;
10432;SDS011;5263;48.680;9.004;2022-12-15T05:43:24;42.57;;;27.33;;
10432;SDS011;5263;48.680;9.004;2022-12-15T05:45:50;45.20;;;28.03;;
10432;SDS011;5263;48.680;9.004;2022-12-15T05:48:15;45.20;;;26.73;;
10432;SDS011;5263;48.680;9.004;2022-12-15T05:50:41;37.53;;;27.20;;
10432;SDS011;5263;48.680;9.004;2022-12-15T05:53:07;38.20;;;25.30;;
10432;SDS011;5263;48.680;9.004;2022-12-15T05:55:32;39.73;;;25.30;;
10432;SDS011;5263;48.680;9.004;2022-12-15T05:57:58;38.60;;;26.50;;
10432;SDS011;5263;48.680;9.004;2022-12-15T06:00:23;42.57;;;27.17;;
10432;SDS011;5263;48.680;9.004;2022-12-15T06:02:49;38.17;;;26.27;;
10432;SDS011;5263;48.680;9.004;2022-12-15T06:05:14;41.13;;;26.83;;
10432;SDS011;5263;48.680;9.004;2022-12-15T06:07:40;38.70;;;26.83;;
10432;SDS011;5263;48.680;9.004;2022-12-15T06:10:06;44.33;;;27.90;;
10432;SDS011;5263;48.680;9.004;2022-12-15T06:12:32;46.57;;;28.87;;
10432;SDS011;5263;48.680;9.004;2022-12-15T06:14:57;43.77;;;27.37;;
10432;SDS011;5263;48.680;9.004;2022-12-15T06:17:23;43.70;;;28.03;;
10432;SDS011;5263;48.680;9.004;2022-12-15T06:19:48;45.43;;;28.30;;
10432;SDS011;5263;48.680;9.004;2022-12-15T06:22:14;48.03;;;28.07;;
10432;SDS011;5263;48.680;9.004;2022-12-15T06:24:40;44.67;;;28.73;;
10432;SDS011;5263;48.680;9.004;2022-12-15T06:27:05;47.17;;;28.43;;
10432;SDS011;5263;48.680;9.004;2022-12-15T06:29:31;49.10;;;31.23;;
10432;SDS011;5263;48.680;9.004;2022-12-15T06:31:56;49.43;;;30.97;;
10432;SDS011;5263;48.680;9.004;2022-12-15T06:34:22;46.20;;;29.03;;
10432;SDS011;5263;48.680;9.004;2022-12-15T06:36:47;47.47;;;30.17;;
10432;SDS011;5263;48.680;9.004;2022-12-15T06:39:14;43.03;;;28.07;;
10432;SDS011;5263;48.680;9.004;2022-12-15T06:41:40;46.07;;;27.10;;
10432;SDS011;5263;48.680;9.004;2022-12-15T06:44:07;42.53;;;27.57;;
10432;SDS011;5263;48.680;9.004;2022-12-15T06:46:36;46.93;;;29.60;;
10432;SDS011;5263;48.680;9.004;2022-12-15T06:49:02;45.03;;;27.67;;
10432;SDS011;5263;48.680;9.004;2022-12-15T06:51:28;46.13;;;28.20;;
10432;SDS011;5263;48.680;9.004;2022-12-15T06:53:54;41.53;;;27.60;;
10432;SDS011;5263;48.680;9.004;2022-12-15T06:56:20;46.03;;;27.57;;
10432;SDS011;5263;48.680;9.004;2022-12-15T06:58:50;41.07;;;26.67;;
10432;SDS011;5263;48.680;9.004;2022-12-15T07:01:17;42.83;;;27.70;;
10432;SDS011;5263;48.680;9.004;2022-12-15T07:03:44;103.67;;;53.57;;
10432;SDS011;5263;48.680;9.004;2022-12-15T07:06:10;55.47;;;36.43;;
10432;SDS011;5263;48.680;9.004;2022-12-15T07:08:38;41.43;;;27.67;;
10432;SDS011;5263;48.680;9.004;2022-12-15T07:11:04;43.30;;;27.40;;
10432;SDS011;5263;48.680;9.004;2022-12-15T07:13:31;40.33;;;27.57;;
10432;SDS011;5263;48.680;9.004;2022-12-15T07:15:58;41.20;;;27.10;;
10432;SDS011;5263;48.680;9.004;2022-12-15T07:18:24;43.37;;;28.20;;
10432;SDS011;5263;48.680;9.004;2022-12-15T07:20:50;43.17;;;26.57;;
10432;SDS011;5263;48.680;9.004;2022-12-15T07:23:16;39.23;;;27.37;;
10432;SDS011;5263;48.680;9.004;2022-12-15T07:25:41;40.50;;;25.77;;
10432;SDS011;5263;48.680;9.004;2022-12-15T07:28:07;38.83;;;26.93;;
10432;SDS011;5263;48.680;9.004;2022-12-15T07:30:33;47.63;;;30.50;;
10432;SDS011;5263;48.680;9.004;2022-12-15T07:32:59;43.40;;;28.30;;
10432;SDS011;5263;48.680;9.004;2022-12-15T07:35:25;45.67;;;27.77;;
10432;SDS011;5263;48.680;9.004;2022-12-15T07:37:50;41.30;;;27.80;;
10432;SDS011;5263;48.680;9.004;2022-12-15T07:40:16;43.67;;;29.07;;
10432;SDS011;5263;48.680;9.004;2022-12-15T07:42:41;41.37;;;28.70;;
10432;SDS011;5263;48.680;9.004;2022-12-15T07:45:07;46.77;;;28.60;;
10432;SDS011;5263;48.680;9.004;2022-12-15T07:47:33;42.50;;;28.10;;
10432;SDS011;5263;48.680;9.004;2022-12-15T07:50:00;47.37;;;28.63;;
10432;SDS011;5263;48.680;9.004;2022-12-15T07:52:25;42.37;;;26.90;;
10432;SDS011;5263;48.680;9.004;2022-12-15T07:54:51;42.60;;;27.53;;
10432;SDS011;5263;48.680;9.004;2022-12-15T07:57:17;47.13;;;29.27;;
10432;SDS011;5263;48.680;9.004;2022-12-15T07:59:43;40.13;;;27.43;;
10432;SDS011;5263;48.680;9.004;2022-12-15T08:02:09;41.83;;;26.70;;
10432;SDS011;5263;48.680;9.004;2022-12-15T08:04:36;43.87;;;27.23;;
10432;SDS011;5263;48.680;9.004;2022-12-15T08:07:02;46.73;;;30.07;;
10432;SDS011;5263;48.680;9.004;2022-12-15T08:09:28;43.77;;;27.87;;
10432;SDS011;5263;48.680;9.004;2022-12-15T08:11:55;44.03;;;27.90;;
10432;SDS011;5263;48.680;9.004;2022-12-15T08:14:21;48.67;;;29.73;;
10432;SDS011;5263;48.680;9.004;2022-12-15T08:16:46;38.17;;;25.70;;
10432;SDS011;5263;48.680;9.004;2022-12-15T08:19:12;40.83;;;26.87;;
10432;SDS011;5263;48.680;9.004;2022-12-15T08:21:39;38.70;;;26.40;;
10432;SDS011;5263;48.680;9.004;2022-12-15T08:24:06;42.57;;;27.73;;
10432;SDS011;5263;48.680;9.004;2022-12-15T08:26:33;42.03;;;26.67;;
10432;SDS011;5263;48.680;9.004;2022-12-15T08:29:00;44.73;;;28.37;;
10432;SDS011;5263;48.680;9.004;2022-12-15T08:31:28;41.33;;;26.93;;
10432;SDS011;5263;48.680;9.004;2022-12-15T08:33:56;39.87;;;26.27;;
10432;SDS011;5263;48.680;9.004;2022-12-15T08:36:21;42.23;;;28.30;;
10432;SDS011;5263;48.680;9.004;2022-12-15T08:38:47;46.33;;;29.40;;
10432;SDS011;5263;48.680;9.004;2022-12-15T08:41:18;41.73;;;26.93;;
10432;SDS011;5263;48.680;9.004;2022-12-15T08:43:47;42.90;;;28.90;;
10432;SDS011;5263;48.680;9.004;2022-12-15T08:46:17;50.17;;;30.17;;
10432;SDS011;5263;48.680;9.004;2022-12-15T08:48:45;40.03;;;25.63;;
10432;SDS011;5263;48.680;9.004;2022-12-15T08:51:12;37.87;;;25.67;;
10432;SDS011;5263;48.680;9.004;2022-12-15T08:53:39;40.50;;;27.20;;
10432;SDS011;5263;48.680;9.004;2022-12-15T08:56:06;40.67;;;27.73;;
10432;SDS011;5263;48.680;9.004;2022-12-15T08:58:33;40.00;;;25.83;;
10432;SDS011;5263;48.680;9.004;2022-12-15T09:01:03;43.37;;;28.57;;
10432;SDS011;5263;48.680;9.004;2022-12-15T09:03:31;41.73;;;27.20;;
10432;SDS011;5263;48.680;9.004;2022-12-15T09:06:04;43.87;;;28.00;;
10432;SDS011;5263;48.680;9.004;2022-12-15T09:08:31;44.63;;;27.60;;
10432;SDS011;5263;48.680;9.004;2022-12-15T09:10:58;43.50;;;27.67;;
10432;SDS011;5263;48.680;9.004;2022-12-15T09:13:25;41.67;;;26.30;;
10432;SDS011;5263;48.680;9.004;2022-12-15T09:15:57;39.87;;;25.77;;
10432;SDS011;5263;48.680;9.004;2022-12-15T09:18:24;43.80;;;26.13;;
10432;SDS011;5263;48.680;9.004;2022-12-15T09:20:49;42.50;;;26.27;;
10432;SDS011;5263;48.680;9.004;2022-12-15T09:23:15;41.43;;;25.67;;
10432;SDS011;5263;48.680;9.004;2022-12-15T09:25:40;39.50;;;26.47;;
10432;SDS011;5263;48.680;9.004;2022-12-15T09:28:06;40.53;;;26.53;;
10432;SDS011;5263;48.680;9.004;2022-12-15T09:30:32;35.13;;;24.47;;
10432;SDS011;5263;48.680;9.004;2022-12-15T09:32:57;35.13;;;24.57;;
10432;SDS011;5263;48.680;9.004;2022-12-15T09:35:25;37.63;;;25.67;;
10432;SDS011;5263;48.680;9.004;2022-12-15T09:37:51;41.23;;;26.70;;
10432;SDS011;5263;48.680;9.004;2022-12-15T09:40:17;34.73;;;25.20;;
10432;SDS011;5263;48.680;9.004;2022-12-15T09:42:44;35.33;;;26.27;;
10432;SDS011;5263;48.680;9.004;2022-12-15T09:45:16;41.97;;;25.93;;
10432;SDS011;5263;48.680;9.004;2022-12-15T09:47:50;40.47;;;25.77;;
10432;SDS011;5263;48.680;9.004;2022-12-15T09:50:22;35.30;;;25.40;;
10432;SDS011;5263;48.680;9.004;2022-12-15T09:52:52;35.87;;;24.77;;
10432;SDS011;5263;48.680;9.004;2022-12-15T09:55:23;38.73;;;26.60;;
10432;SDS011;5263;48.680;9.004;2022-12-15T09:57:54;35.50;;;24.60;;
10432;SDS011;5263;48.680;9.004;2022-12-15T10:00:21;40.57;;;25.80;;
10432;SDS011;5263;48.680;9.004;2022-12-15T10:06:25;40.10;;;23.77;;
10432;SDS011;5263;48.680;9.004;2022-12-15T10:11:56;37.00;;;25.13;;
10432;SDS011;5263;48.680;9.004;2022-12-15T10:22:25;37.00;;;24.77;;
10432;SDS011;5263;48.680;9.004;2022-12-15T10:24:54;38.63;;;25.03;;
10432;SDS011;5263;48.680;9.004;2022-12-15T10:27:37;39.70;;;26.40;;
10432;SDS011;5263;48.680;9.004;2022-12-15T10:30:22;34.67;;;24.47;;
10432;SDS011;5263;48.680;9.004;2022-12-15T10:32:49;38.63;;;26.73;;
10432;SDS011;5263;48.680;9.004;2022-12-15T10:35:30;37.93;;;23.80;;
10432;SDS011;5263;48.680;9.004;2022-12-15T10:37:59;37.67;;;26.83;;
10432;SDS011;5263;48.680;9.004;2022-12-15T10:40:43;47.17;;;29.00;;
10432;SDS011;5263;48.680;9.004;2022-12-15T10:43:21;40.40;;;29.20;;
10432;SDS011;5263;48.680;9.004;2022-12-15T10:46:16;52.63;;;31.90;;
10432;SDS011;5263;48.680;9.004;2022-12-15T10:48:51;39.57;;;28.37;;
10432;SDS011;5263;48.680;9.004;2022-12-15T10:59:28;47.20;;;29.73;;
10432;SDS011;5263;48.680;9.004;2022-12-15T11:01:55;48.37;;;31.20;;
10432;SDS011;5263;48.680;9.004;2022-12-15T11:04:41;52.97;;;29.57;;
10432;SDS011;5263;48.680;9.004;2022-12-15T11:07:48;43.23;;;29.80;;
10432;SDS011;5263;48.680;9.004;2022-12-15T11:10:23;44.73;;;28.53;;
10432;SDS011;5263;48.680;9.004;2022-12-15T11:12:56;44.23;;;27.90;;
10432;SDS011;5263;48.680;9.004;2022-12-15T11:15:43;49.97;;;31.13;;
10432;SDS011;5263;48.680;9.004;2022-12-15T11:18:54;45.50;;;28.40;;
10432;SDS011;5263;48.680;9.004;2022-12-15T11:21:16;43.13;;;28.97;;
10432;SDS011;5263;48.680;9.004;2022-12-15T11:24:03;48.67;;;29.57;;
10432;SDS011;5263;48.680;9.004;2022-12-15T11:26:43;42.40;;;28.23;;
10432;SDS011;5263;48.680;9.004;2022-12-15T11:29:31;50.13;;;29.90;;
10432;SDS011;5263;48.680;9.004;2022-12-15T11:32:10;45.83;;;29.07;;
10432;SDS011;5263;48.680;9.004;2022-12-15T11:34:46;43.83;;;27.67;;
10432;SDS011;5263;48.680;9.004;2022-12-15T11:42:59;46.57;;;30.10;;
10432;SDS011;5263;48.680;9.004;2022-12-15T11:45:48;45.73;;;29.37;;
10432;SDS011;5263;48.680;9.004;2022-12-15T11:54:40;43.47;;;26.87;;
10432;SDS011;5263;48.680;9.004;2022-12-15T11:57:31;40.00;;;24.43;;
10432;SDS011;5263;48.680;9.004;2022-12-15T12:00:09;42.20;;;25.37;;
10432;SDS011;5263;48.680;9.004;2022-12-15T12:08:01;39.87;;;25.10;;
10432;SDS011;5263;48.680;9.004;2022-12-15T12:10:38;38.17;;;25.00;;
10432;SDS011;5263;48.680;9.004;2022-12-15T12:19:00;32.50;;;22.73;;
10432;SDS011;5263;48.680;9.004;2022-12-15T12:21:36;32.77;;;24.40;;
10432;SDS011;5263;48.680;9.004;2022-12-15T12:24:15;38.03;;;25.17;;
10432;SDS011;5263;48.680;9.004;2022-12-15T12:29:43;33.57;;;22.90;;
10432;SDS011;5263;48.680;9.004;2022-12-15T12:37:35;38.40;;;24.20;;
10432;SDS011;5263;48.680;9.004;2022-12-15T12:40:13;41.13;;;25.77;;
10432;SDS011;5263;48.680;9.004;2022-12-15T12:42:52;39.07;;;26.20;;
10432;SDS011;5263;48.680;9.004;2022-12-15T12:45:20;46.67;;;27.03;;
10432;SDS011;5263;48.680;9.004;2022-12-15T12:47:51;40.77;;;25.57;;
10432;SDS011;5263;48.680;9.004;2022-12-15T12:50:22;37.10;;;25.57;;
10432;SDS011;5263;48.680;9.004;2022-12-15T12:52:52;42.13;;;27.77;;
10432;SDS011;5263;48.680;9.004;2022-12-15T13:03:38;35.50;;;24.57;;
10432;SDS011;5263;48.680;9.004;2022-12-15T13:06:21;39.07;;;26.00;;
10432;SDS011;5263;48.680;9.004;2022-12-15T13:09:35;37.47;;;25.20;;
10432;SDS011;5263;48.680;9.004;2022-12-15T13:14:59;35.20;;;24.53;;
10432;SDS011;5263;48.680;9.004;2022-12-15T13:17:31;43.63;;;25.17;;
10432;SDS011;5263;48.680;9.004;2022-12-15T13:22:30;43.30;;;27.80;;
10432;SDS011;5263;48.680;9.004;2022-12-15T13:24:58;42.20;;;28.03;;
10432;SDS011;5263;48.680;9.004;2022-12-15T13:27:33;39.33;;;27.00;;
10432;SDS011;5263;48.680;9.004;2022-12-15T13:30:01;38.73;;;25.77;;
10432;SDS011;5263;48.680;9.004;2022-12-15T13:34:55;40.53;;;26.73;;
10432;SDS011;5263;48.680;9.004;2022-12-15T13:42:55;42.13;;;29.13;;
10432;SDS011;5263;48.680;9.004;2022-12-15T13:48:44;42.20;;;26.83;;
10432;SDS011;5263;48.680;9.004;2022-12-15T13:53:47;42.73;;;27.33;;
10432;SDS011;5263;48.680;9.004;2022-12-15T14:01:54;55.83;;;29.30;;
10432;SDS011;5263;48.680;9.004;2022-12-15T14:04:20;52.50;;;27.97;;
10432;SDS011;5263;48.680;9.004;2022-12-15T14:09:14;42.33;;;26.63;;
10432;SDS011;5263;48.680;9.004;2022-12-15T14:11:44;39.37;;;26.20;;
10432;SDS011;5263;48.680;9.004;2022-12-15T14:14:19;42.27;;;26.60;;
10432;SDS011;5263;48.680;9.004;2022-12-15T14:16:54;40.47;;;26.27;;
10432;SDS011;5263;48.680;9.004;2022-12-15T14:19:25;43.27;;;27.20;;
10432;SDS011;5263;48.680;9.004;2022-12-15T14:22:00;44.50;;;27.33;;
10432;SDS011;5263;48.680;9.004;2022-12-15T14:24:27;40.47;;;24.53;;
10432;SDS011;5263;48.680;9.004;2022-12-15T14:26:54;46.20;;;26.80;;
10432;SDS011;5263;48.680;9.004;2022-12-15T14:29:21;45.27;;;26.63;;
10432;SDS011;5263;48.680;9.004;2022-12-15T14:31:49;44.47;;;27.57;;
10432;SDS011;5263;48.680;9.004;2022-12-15T14:34:23;39.53;;;26.90;;
10432;SDS011;5263;48.680;9.004;2022-12-15T14:36:58;37.37;;;24.20;;
10432;SDS011;5263;48.680;9.004;2022-12-15T14:39:38;40.47;;;25.80;;
10432;SDS011;5263;48.680;9.004;2022-12-15T14:42:13;46.07;;;28.43;;
10432;SDS011;5263;48.680;9.004;2022-12-15T14:44:54;39.83;;;25.90;;
10432;SDS011;5263;48.680;9.004;2022-12-15T14:47:22;39.00;;;25.43;;
10432;SDS011;5263;48.680;9.004;2022-12-15T14:49:51;37.37;;;23.23;;
10432;SDS011;5263;48.680;9.004;2022-12-15T14:52:33;37.37;;;24.47;;
10432;SDS011;5263;48.680;9.004;2022-12-15T14:57:50;42.20;;;25.87;;
10432;SDS011;5263;48.680;9.004;2022-12-15T15:06:00;40.07;;;26.93;;
10432;SDS011;5263;48.680;9.004;2022-12-15T15:08:32;38.93;;;24.93;;
10432;SDS011;5263;48.680;9.004;2022-12-15T15:11:00;49.30;;;26.87;;
10432;SDS011;5263;48.680;9.004;2022-12-15T15:13:41;42.53;;;26.37;;
10432;SDS011;5263;48.680;9.004;2022-12-15T15:16:12;47.63;;;28.60;;
10432;SDS011;5263;48.680;9.004;2022-12-15T15:18:40;42.90;;;27.77;;
10432;SDS011;5263;48.680;9.004;2022-12-15T15:21:06;42.17;;;27.00;;
10432;SDS011;5263;48.680;9.004;2022-12-15T15:26:24;45.13;;;27.63;;
10432;SDS011;5263;48.680;9.004;2022-12-15T15:28:50;47.00;;;28.03;;
10432;SDS011;5263;48.680;9.004;2022-12-15T15:31:35;45.23;;;28.60;;
10432;SDS011;5263;48.680;9.004;2022-12-15T15:34:02;46.60;;;28.07;;
10432;SDS011;5263;48.680;9.004;2022-12-15T15:36:32;43.93;;;25.97;;
10432;SDS011;5263;48.680;9.004;2022-12-15T15:38:58;44.50;;;25.97;;
10432;SDS011;5263;48.680;9.004;2022-12-15T15:41:26;42.07;;;26.50;;
10432;SDS011;5263;48.680;9.004;2022-12-15T15:43:53;47.00;;;28.37;;
10432;SDS011;5263;48.680;9.004;2022-12-15T15:46:21;40.23;;;25.60;;
10432;SDS011;5263;48.680;9.004;2022-12-15T15:48:53;47.50;;;27.77;;
10432;SDS011;5263;48.680;9.004;2022-12-15T15:51:22;47.13;;;27.50;;
10432;SDS011;5263;48.680;9.004;2022-12-15T15:53:51;47.67;;;26.77;;
10432;SDS011;5263;48.680;9.004;2022-12-15T15:56:18;42.83;;;26.23;;
10432;SDS011;5263;48.680;9.004;2022-12-15T15:58:45;39.00;;;24.63;;
10432;SDS011;5263;48.680;9.004;2022-12-15T16:01:11;44.03;;;26.07;;
10432;SDS011;5263;48.680;9.004;2022-12-15T16:03:36;40.90;;;25.33;;
10432;SDS011;5263;48.680;9.004;2022-12-15T16:06:03;43.30;;;26.10;;
10432;SDS011;5263;48.680;9.004;2022-12-15T16:08:31;41.00;;;25.17;;
10432;SDS011;5263;48.680;9.004;2022-12-15T16:10:59;38.97;;;25.00;;
10432;SDS011;5263;48.680;9.004;2022-12-15T16:13:25;43.07;;;25.17;;
10432;SDS011;5263;48.680;9.004;2022-12-15T16:15:51;54.77;;;28.10;;
10432;SDS011;5263;48.680;9.004;2022-12-15T16:18:18;47.17;;;26.10;;
10432;SDS011;5263;48.680;9.004;2022-12-15T16:20:45;45.37;;;25.67;;
10432;SDS011;5263;48.680;9.004;2022-12-15T16:23:14;42.67;;;25.87;;
10432;SDS011;5263;48.680;9.004;2022-12-15T16:25:46;47.13;;;27.07;;
10432;SDS011;5263;48.680;9.004;2022-12-15T16:28:21;48.03;;;27.07;;
10432;SDS011;5263;48.680;9.004;2022-12-15T16:30:49;49.97;;;29.33;;
10432;SDS011;5263;48.680;9.004;2022-12-15T16:33:15;50.87;;;28.27;;
10432;SDS011;5263;48.680;9.004;2022-12-15T16:35:41;44.40;;;27.03;;
10432;SDS011;5263;48.680;9.004;2022-12-15T16:38:21;42.87;;;25.80;;
10432;SDS011;5263;48.680;9.004;2022-12-15T16:40:50;40.57;;;25.40;;
10432;SDS011;5263;48.680;9.004;2022-12-15T16:43:20;45.93;;;28.63;;
10432;SDS011;5263;48.680;9.004;2022-12-15T16:45:49;47.27;;;27.70;;
10432;SDS011;5263;48.680;9.004;2022-12-15T16:48:16;47.57;;;27.43;;
10432;SDS011;5263;48.680;9.004;2022-12-15T16:50:42;38.60;;;25.07;;
10432;SDS011;5263;48.680;9.004;2022-12-15T16:53:17;41.97;;;24.70;;
10432;SDS011;5263;48.680;9.004;2022-12-15T16:55:47;39.40;;;25.23;;
10432;SDS011;5263;48.680;9.004;2022-12-15T16:58:18;43.97;;;25.33;;
10432;SDS011;5263;48.680;9.004;2022-12-15T17:00:44;44.23;;;25.27;;
10432;SDS011;5263;48.680;9.004;2022-12-15T17:03:11;41.37;;;25.47;;
10432;SDS011;5263;48.680;9.004;2022-12-15T17:05:38;40.73;;;24.37;;